EmpreSS Of The Seas — C6CM8 — position and weather

sailwx.info

Track history (hours):
 
Tides and Currents Weather Stations Pressure Air Temp Water Temp Dewpoint Dewpoint Depression Visibility Wind Speed Wind Dir Waves Ship Positions

EmpreSS Of The Seas

Last reported at 2018-Jul-16 10:00 UTC. Time now 2018-Jul-16 10:03 UTC.
Position N 25°44' W 079°59'.

Length 211 m; draft 7.3 m.

Type: Passenger vessel. MMSI: 311000515.

Date/timePositionNaut miles runAvg speedWind from/ knotsBaromVisibWave heightAir tempDewpointWater temp
2018-Jul-16 10:00N 25°44' W 079°59'815.2
2018-Jul-16 09:30N 25°37' W 079°58'815.5
2018-Jul-16 09:00N 25°29' W 079°57'4314.3
2018-Jul-16 06:00N 24°48' W 080°12'10918.2 160 / 91019.110.8 27.025.726.0
2018-Jul-16 00:00N 23°36' W 081°42'131 3.3 090 / 111017.710.8 27.025.726.0
2018-Jul-14 08:00N 24°48' W 079°42'130 5.4 360 / 51018.210.8 26.024.626.0
2018-Jul-13 08:00N 25°24' W 077°24'13313.0 090 / 31019.410.8 27.025.727.0
2018-Jul-12 21:43N 25°53' W 079°48'315.9
2018-Jul-12 21:30N 25°51' W 079°52'815.5
2018-Jul-12 21:01N 25°48' W 079°60'611.9
2018-Jul-12 20:30N 25°46' W 080°06'5 9.1
2018-Jul-12 20:00N 25°47' W 080°11'0 0.3
2018-Jul-12 19:29N 25°47' W 080°11'0 0.0
2018-Jul-12 18:59N 25°47' W 080°11'0 0.0
2018-Jul-12 18:29N 25°47' W 080°11'0 0.0
2018-Jul-12 17:59N 25°47' W 080°11'0 0.0
2018-Jul-12 17:29N 25°47' W 080°11'0 0.0
2018-Jul-12 16:59N 25°47' W 080°11'0 0.0
2018-Jul-12 16:29N 25°47' W 080°11'0 0.0
2018-Jul-12 15:59N 25°47' W 080°11'0 0.0
2018-Jul-12 15:29N 25°47' W 080°11'0 0.0
2018-Jul-12 14:53N 25°47' W 080°11'0 0.0
2018-Jul-12 14:29N 25°47' W 080°11'0 0.0
2018-Jul-12 13:56N 25°47' W 080°11'0 0.0
2018-Jul-12 13:26N 25°47' W 080°11'0 0.0
2018-Jul-12 12:53N 25°47' W 080°11'0 0.0
2018-Jul-12 12:29N 25°47' W 080°11'0 0.0
2018-Jul-12 11:53N 25°47' W 080°11'0 0.0
2018-Jul-12 11:26N 25°47' W 080°11'0 0.0
2018-Jul-12 10:59N 25°47' W 080°11'0 0.1
2018-Jul-12 10:30N 25°47' W 080°11'2 3.4
2018-Jul-12 10:00N 25°46' W 080°09'611.8
2018-Jul-12 09:30N 25°46' W 080°03'5 9.7
2018-Jul-12 09:00N 25°43' W 079°59'611.4
2018-Jul-12 08:30N 25°37' W 079°57'612.9
2018-Jul-12 08:00N 25°31' W 079°56'2512.4
2018-Jul-12 06:00N 25°06' W 079°54'29814.2 190 / 121018.410.8 26.024.626.0
2018-Jul-11 09:00N 22°36' W 084°36'17717.1 050 / 111016.110.8 26.024.626.0
2018-Jul-10 22:40N 20°37' W 086°56'318.5
2018-Jul-10 22:30N 20°34' W 086°58'510.3
2018-Jul-10 22:00N 20°29' W 086°59'0 0.2
2018-Jul-10 21:30N 20°29' W 086°59'0 0.0
2018-Jul-10 20:54N 20°29' W 086°59'0 0.0
2018-Jul-10 20:30N 20°29' W 086°59'0 0.0
2018-Jul-10 20:00N 20°29' W 086°59'0 0.0
2018-Jul-10 19:30N 20°29' W 086°59'0 0.0
2018-Jul-10 18:54N 20°29' W 086°59'0 0.0
2018-Jul-10 18:30N 20°29' W 086°59'0 0.0
2018-Jul-10 18:00N 20°29' W 086°59'0 0.0
2018-Jul-10 17:30N 20°29' W 086°59'0 0.0
2018-Jul-10 17:00N 20°29' W 086°59'0 0.0
2018-Jul-10 16:30N 20°29' W 086°59'0 0.0
2018-Jul-10 16:00N 20°29' W 086°59'0 0.0
2018-Jul-10 15:30N 20°29' W 086°59'0 0.0
2018-Jul-10 15:00N 20°29' W 086°59'0 0.0
2018-Jul-10 14:30N 20°29' W 086°59'0 0.0
2018-Jul-10 13:54N 20°29' W 086°59'0 0.1
2018-Jul-10 13:31N 20°29' W 086°59'4 7.6
2018-Jul-10 13:00N 20°33' W 086°58'  
2018-Jul-08 06:00N 23°48' W 081°06'11814.9 090 / 141019.510.8 27.024.326.0
2018-Jul-07 22:05N 25°30' W 080°01'215.2
2018-Jul-07 21:57N 25°32' W 080°01'715.2
2018-Jul-07 21:30N 25°39' W 080°01'714.2
2018-Jul-07 21:00N 25°46' W 080°04'5 9.3
2018-Jul-07 20:30N 25°46' W 080°09'2 3.4
2018-Jul-07 20:00N 25°46' W 080°11'0 0.0
2018-Jul-07 19:30N 25°46' W 080°11'0 0.0
2018-Jul-07 19:00N 25°46' W 080°11'0 0.0
2018-Jul-07 18:30N 25°46' W 080°11'0 0.0
2018-Jul-07 18:00N 25°46' W 080°11'0 0.0
2018-Jul-07 17:30N 25°46' W 080°11'0 0.0
2018-Jul-07 17:00N 25°46' W 080°11'0 0.0
2018-Jul-07 16:30N 25°46' W 080°11'0 0.0
2018-Jul-07 16:00N 25°46' W 080°11'0 0.0
2018-Jul-07 15:30N 25°46' W 080°11'0 0.0
2018-Jul-07 15:00N 25°46' W 080°11'0 0.0
2018-Jul-07 14:30N 25°46' W 080°11'0 0.0
2018-Jul-07 14:00N 25°46' W 080°11'0 0.0
2018-Jul-07 13:30N 25°46' W 080°11'0 0.0
2018-Jul-07 13:00N 25°46' W 080°11'0 0.0
2018-Jul-07 12:30N 25°46' W 080°11'0 0.0
2018-Jul-07 12:00N 25°46' W 080°11'0 0.0
2018-Jul-07 11:30N 25°46' W 080°11'0 0.0
2018-Jul-07 11:00N 25°46' W 080°11'1 1.4
2018-Jul-07 10:30N 25°46' W 080°10'2 4.2
2018-Jul-07 10:00N 25°46' W 080°08'510.7
2018-Jul-07 09:30N 25°46' W 080°02'5 9.1
2018-Jul-07 09:00N 25°45' W 079°57'4 9.1
2018-Jul-07 08:30N 25°44' W 079°52'5 9.3
2018-Jul-07 08:00N 25°40' W 079°49'5 9.4
2018-Jul-07 07:30N 25°36' W 079°47'5 9.3
2018-Jul-07 06:59N 25°31' W 079°45'  
Track history (hours):
 
Tides and Currents Weather Stations Pressure Air Temp Water Temp Dewpoint Dewpoint Depression Visibility Wind Speed Wind Dir Waves Ship Positions

EmpreSS Of The Seas

Last reported at 2018-Jul-16 10:00 UTC. Time now 2018-Jul-16 10:03 UTC.
Position N 25°44' W 079°59'.

Length 211 m; draft 7.3 m.

Type: Passenger vessel. MMSI: 311000515.

Date/timePositionNaut miles runAvg speedWind from/ knotsBaromVisibWave heightAir tempDewpointWater temp
2018-Jul-16 10:00N 25°44' W 079°59'815.2
2018-Jul-16 09:30N 25°37' W 079°58'815.5
2018-Jul-16 09:00N 25°29' W 079°57'4314.3
2018-Jul-16 06:00N 24°48' W 080°12'10918.2 160 / 91019.110.8 27.025.726.0
2018-Jul-16 00:00N 23°36' W 081°42'131 3.3 090 / 111017.710.8 27.025.726.0
2018-Jul-14 08:00N 24°48' W 079°42'130 5.4 360 / 51018.210.8 26.024.626.0
2018-Jul-13 08:00N 25°24' W 077°24'13313.0 090 / 31019.410.8 27.025.727.0
2018-Jul-12 21:43N 25°53' W 079°48'315.9
2018-Jul-12 21:30N 25°51' W 079°52'815.5
2018-Jul-12 21:01N 25°48' W 079°60'611.9
2018-Jul-12 20:30N 25°46' W 080°06'5 9.1
2018-Jul-12 20:00N 25°47' W 080°11'0 0.3
2018-Jul-12 19:29N 25°47' W 080°11'0 0.0
2018-Jul-12 18:59N 25°47' W 080°11'0 0.0
2018-Jul-12 18:29N 25°47' W 080°11'0 0.0
2018-Jul-12 17:59N 25°47' W 080°11'0 0.0
2018-Jul-12 17:29N 25°47' W 080°11'0 0.0
2018-Jul-12 16:59N 25°47' W 080°11'0 0.0
2018-Jul-12 16:29N 25°47' W 080°11'0 0.0
2018-Jul-12 15:59N 25°47' W 080°11'0 0.0
2018-Jul-12 15:29N 25°47' W 080°11'0 0.0
2018-Jul-12 14:53N 25°47' W 080°11'0 0.0
2018-Jul-12 14:29N 25°47' W 080°11'0 0.0
2018-Jul-12 13:56N 25°47' W 080°11'0 0.0
2018-Jul-12 13:26N 25°47' W 080°11'0 0.0
2018-Jul-12 12:53N 25°47' W 080°11'0 0.0
2018-Jul-12 12:29N 25°47' W 080°11'0 0.0
2018-Jul-12 11:53N 25°47' W 080°11'0 0.0
2018-Jul-12 11:26N 25°47' W 080°11'0 0.0
2018-Jul-12 10:59N 25°47' W 080°11'0 0.1
2018-Jul-12 10:30N 25°47' W 080°11'2 3.4
2018-Jul-12 10:00N 25°46' W 080°09'611.8
2018-Jul-12 09:30N 25°46' W 080°03'5 9.7
2018-Jul-12 09:00N 25°43' W 079°59'611.4
2018-Jul-12 08:30N 25°37' W 079°57'612.9
2018-Jul-12 08:00N 25°31' W 079°56'2512.4
2018-Jul-12 06:00N 25°06' W 079°54'29814.2 190 / 121018.410.8 26.024.626.0
2018-Jul-11 09:00N 22°36' W 084°36'17717.1 050 / 111016.110.8 26.024.626.0
2018-Jul-10 22:40N 20°37' W 086°56'318.5
2018-Jul-10 22:30N 20°34' W 086°58'510.3
2018-Jul-10 22:00N 20°29' W 086°59'0 0.2
2018-Jul-10 21:30N 20°29' W 086°59'0 0.0
2018-Jul-10 20:54N 20°29' W 086°59'0 0.0
2018-Jul-10 20:30N 20°29' W 086°59'0 0.0
2018-Jul-10 20:00N 20°29' W 086°59'0 0.0
2018-Jul-10 19:30N 20°29' W 086°59'0 0.0
2018-Jul-10 18:54N 20°29' W 086°59'0 0.0
2018-Jul-10 18:30N 20°29' W 086°59'0 0.0
2018-Jul-10 18:00N 20°29' W 086°59'0 0.0
2018-Jul-10 17:30N 20°29' W 086°59'0 0.0
2018-Jul-10 17:00N 20°29' W 086°59'0 0.0
2018-Jul-10 16:30N 20°29' W 086°59'0 0.0
2018-Jul-10 16:00N 20°29' W 086°59'0 0.0
2018-Jul-10 15:30N 20°29' W 086°59'0 0.0
2018-Jul-10 15:00N 20°29' W 086°59'0 0.0
2018-Jul-10 14:30N 20°29' W 086°59'0 0.0
2018-Jul-10 13:54N 20°29' W 086°59'0 0.1
2018-Jul-10 13:31N 20°29' W 086°59'4 7.6
2018-Jul-10 13:00N 20°33' W 086°58'  
2018-Jul-08 06:00N 23°48' W 081°06'11814.9 090 / 141019.510.8 27.024.326.0
2018-Jul-07 22:05N 25°30' W 080°01'215.2
2018-Jul-07 21:57N 25°32' W 080°01'715.2
2018-Jul-07 21:30N 25°39' W 080°01'714.2
2018-Jul-07 21:00N 25°46' W 080°04'5 9.3
2018-Jul-07 20:30N 25°46' W 080°09'2 3.4
2018-Jul-07 20:00N 25°46' W 080°11'0 0.0
2018-Jul-07 19:30N 25°46' W 080°11'0 0.0
2018-Jul-07 19:00N 25°46' W 080°11'0 0.0
2018-Jul-07 18:30N 25°46' W 080°11'0 0.0
2018-Jul-07 18:00N 25°46' W 080°11'0 0.0
2018-Jul-07 17:30N 25°46' W 080°11'0 0.0
2018-Jul-07 17:00N 25°46' W 080°11'0 0.0
2018-Jul-07 16:30N 25°46' W 080°11'0 0.0
2018-Jul-07 16:00N 25°46' W 080°11'0 0.0
2018-Jul-07 15:30N 25°46' W 080°11'0 0.0
2018-Jul-07 15:00N 25°46' W 080°11'0 0.0
2018-Jul-07 14:30N 25°46' W 080°11'0 0.0
2018-Jul-07 14:00N 25°46' W 080°11'0 0.0
2018-Jul-07 13:30N 25°46' W 080°11'0 0.0
2018-Jul-07 13:00N 25°46' W 080°11'0 0.0
2018-Jul-07 12:30N 25°46' W 080°11'0 0.0
2018-Jul-07 12:00N 25°46' W 080°11'0 0.0
2018-Jul-07 11:30N 25°46' W 080°11'0 0.0
2018-Jul-07 11:00N 25°46' W 080°11'1 1.4
2018-Jul-07 10:30N 25°46' W 080°10'2 4.2
2018-Jul-07 10:00N 25°46' W 080°08'510.7
2018-Jul-07 09:30N 25°46' W 080°02'5 9.1
2018-Jul-07 09:00N 25°45' W 079°57'4 9.1
2018-Jul-07 08:30N 25°44' W 079°52'5 9.3
2018-Jul-07 08:00N 25°40' W 079°49'5 9.4
2018-Jul-07 07:30N 25°36' W 079°47'5 9.3
2018-Jul-07 06:59N 25°31' W 079°45'  

Dump ship's entire track history